sensor_id;sensor_type;location;lat;lon;timestamp;temperature;humidity
43089;DHT22;28709;52.030;5.652;2023-05-27T00:01:49;9.60;99.90
43089;DHT22;28709;52.030;5.652;2023-05-27T00:04:15;9.60;99.90
43089;DHT22;28709;52.030;5.652;2023-05-27T00:06:40;9.60;99.90
43089;DHT22;28709;52.030;5.652;2023-05-27T00:09:06;9.50;99.90
43089;DHT22;28709;52.030;5.652;2023-05-27T00:11:32;9.50;99.90
43089;DHT22;28709;52.030;5.652;2023-05-27T00:13:57;9.50;99.90
43089;DHT22;28709;52.030;5.652;2023-05-27T00:16:23;9.40;99.90
43089;DHT22;28709;52.030;5.652;2023-05-27T00:18:50;9.40;99.90
43089;DHT22;28709;52.030;5.652;2023-05-27T00:21:16;9.40;99.90
43089;DHT22;28709;52.030;5.652;2023-05-27T00:23:45;9.40;99.90
43089;DHT22;28709;52.030;5.652;2023-05-27T00:26:11;9.40;99.90
43089;DHT22;28709;52.030;5.652;2023-05-27T00:28:37;9.30;99.90
43089;DHT22;28709;52.030;5.652;2023-05-27T00:31:02;9.40;99.90
43089;DHT22;28709;52.030;5.652;2023-05-27T00:33:28;9.30;99.90
43089;DHT22;28709;52.030;5.652;2023-05-27T00:35:53;9.30;99.90
43089;DHT22;28709;52.030;5.652;2023-05-27T00:38:19;9.30;99.90
43089;DHT22;28709;52.030;5.652;2023-05-27T00:40:45;9.30;99.90
43089;DHT22;28709;52.030;5.652;2023-05-27T00:43:11;9.30;99.90
43089;DHT22;28709;52.030;5.652;2023-05-27T00:45:37;9.30;99.90
43089;DHT22;28709;52.030;5.652;2023-05-27T00:48:03;9.20;99.90
43089;DHT22;28709;52.030;5.652;2023-05-27T00:50:30;9.20;99.90
43089;DHT22;28709;52.030;5.652;2023-05-27T00:52:56;9.20;99.90
43089;DHT22;28709;52.030;5.652;2023-05-27T00:55:23;9.10;99.90
43089;DHT22;28709;52.030;5.652;2023-05-27T00:57:49;9.10;99.90
43089;DHT22;28709;52.030;5.652;2023-05-27T01:00:15;9.10;99.90
43089;DHT22;28709;52.030;5.652;2023-05-27T01:02:41;9.10;99.90
43089;DHT22;28709;52.030;5.652;2023-05-27T01:05:09;9.10;99.90
43089;DHT22;28709;52.030;5.652;2023-05-27T01:10:26;9.00;99.90
43089;DHT22;28709;52.030;5.652;2023-05-27T01:15:46;9.00;99.90
43089;DHT22;28709;52.030;5.652;2023-05-27T01:18:15;9.00;99.90
43089;DHT22;28709;52.030;5.652;2023-05-27T01:20:43;8.90;99.90
43089;DHT22;28709;52.030;5.652;2023-05-27T01:23:09;8.90;99.90
43089;DHT22;28709;52.030;5.652;2023-05-27T01:25:35;8.90;99.90
43089;DHT22;28709;52.030;5.652;2023-05-27T01:28:00;8.90;99.90
43089;DHT22;28709;52.030;5.652;2023-05-27T01:30:27;8.80;99.90
43089;DHT22;28709;52.030;5.652;2023-05-27T01:32:58;8.90;99.90
43089;DHT22;28709;52.030;5.652;2023-05-27T01:35:44;8.80;99.90
43089;DHT22;28709;52.030;5.652;2023-05-27T01:38:14;8.80;99.90
43089;DHT22;28709;52.030;5.652;2023-05-27T01:40:41;8.80;99.90
43089;DHT22;28709;52.030;5.652;2023-05-27T01:43:09;8.80;99.90
43089;DHT22;28709;52.030;5.652;2023-05-27T01:45:35;8.80;99.90
43089;DHT22;28709;52.030;5.652;2023-05-27T01:48:01;8.70;99.90
43089;DHT22;28709;52.030;5.652;2023-05-27T01:50:26;8.70;99.90
43089;DHT22;28709;52.030;5.652;2023-05-27T01:52:52;8.70;99.90
43089;DHT22;28709;52.030;5.652;2023-05-27T01:55:18;8.70;99.90
43089;DHT22;28709;52.030;5.652;2023-05-27T01:57:44;8.60;99.90
43089;DHT22;28709;52.030;5.652;2023-05-27T02:00:10;8.60;99.90
43089;DHT22;28709;52.030;5.652;2023-05-27T02:02:36;8.60;99.90
43089;DHT22;28709;52.030;5.652;2023-05-27T02:05:02;8.60;99.90
43089;DHT22;28709;52.030;5.652;2023-05-27T02:07:28;8.60;99.90
43089;DHT22;28709;52.030;5.652;2023-05-27T02:09:54;8.60;99.90
43089;DHT22;28709;52.030;5.652;2023-05-27T02:12:19;8.50;99.90
43089;DHT22;28709;52.030;5.652;2023-05-27T02:14:45;8.50;99.90
43089;DHT22;28709;52.030;5.652;2023-05-27T02:17:11;8.40;99.90
43089;DHT22;28709;52.030;5.652;2023-05-27T02:19:40;8.40;99.90
43089;DHT22;28709;52.030;5.652;2023-05-27T02:22:06;8.40;99.90
43089;DHT22;28709;52.030;5.652;2023-05-27T02:24:32;8.40;99.90
43089;DHT22;28709;52.030;5.652;2023-05-27T02:26:58;8.40;99.90
43089;DHT22;28709;52.030;5.652;2023-05-27T02:29:23;8.40;99.90
43089;DHT22;28709;52.030;5.652;2023-05-27T02:31:49;8.30;99.90
43089;DHT22;28709;52.030;5.652;2023-05-27T02:34:15;8.30;99.90
43089;DHT22;28709;52.030;5.652;2023-05-27T02:36:40;8.30;99.90
43089;DHT22;28709;52.030;5.652;2023-05-27T02:39:06;8.30;99.90
43089;DHT22;28709;52.030;5.652;2023-05-27T02:41:33;8.30;99.90
43089;DHT22;28709;52.030;5.652;2023-05-27T02:43:59;8.30;99.90
43089;DHT22;28709;52.030;5.652;2023-05-27T02:46:24;8.30;99.90
43089;DHT22;28709;52.030;5.652;2023-05-27T02:48:50;8.30;99.90
43089;DHT22;28709;52.030;5.652;2023-05-27T02:51:15;8.30;99.90
43089;DHT22;28709;52.030;5.652;2023-05-27T02:53:41;8.30;99.90
43089;DHT22;28709;52.030;5.652;2023-05-27T02:56:07;8.20;99.90
43089;DHT22;28709;52.030;5.652;2023-05-27T02:58:33;8.20;99.90
43089;DHT22;28709;52.030;5.652;2023-05-27T03:00:58;8.20;99.90
43089;DHT22;28709;52.030;5.652;2023-05-27T03:03:24;8.20;99.90
43089;DHT22;28709;52.030;5.652;2023-05-27T03:05:50;8.10;99.90
43089;DHT22;28709;52.030;5.652;2023-05-27T03:08:16;8.10;99.90
43089;DHT22;28709;52.030;5.652;2023-05-27T03:10:42;8.10;99.90
43089;DHT22;28709;52.030;5.652;2023-05-27T03:13:07;8.10;99.90
43089;DHT22;28709;52.030;5.652;2023-05-27T03:15:33;8.00;99.90
43089;DHT22;28709;52.030;5.652;2023-05-27T03:18:00;8.00;99.90
43089;DHT22;28709;52.030;5.652;2023-05-27T03:20:28;8.00;99.90
43089;DHT22;28709;52.030;5.652;2023-05-27T03:22:54;8.00;99.90
43089;DHT22;28709;52.030;5.652;2023-05-27T03:25:20;8.00;99.90
43089;DHT22;28709;52.030;5.652;2023-05-27T03:27:46;8.00;99.90
43089;DHT22;28709;52.030;5.652;2023-05-27T03:30:12;7.90;99.90
43089;DHT22;28709;52.030;5.652;2023-05-27T03:32:37;7.90;99.90
43089;DHT22;28709;52.030;5.652;2023-05-27T03:35:03;7.90;99.90
43089;DHT22;28709;52.030;5.652;2023-05-27T03:37:29;7.80;99.90
43089;DHT22;28709;52.030;5.652;2023-05-27T03:39:55;7.90;99.90
43089;DHT22;28709;52.030;5.652;2023-05-27T03:42:20;7.80;99.90
43089;DHT22;28709;52.030;5.652;2023-05-27T03:44:46;7.80;99.90
43089;DHT22;28709;52.030;5.652;2023-05-27T03:47:12;7.80;99.90
43089;DHT22;28709;52.030;5.652;2023-05-27T03:49:37;7.80;99.90
43089;DHT22;28709;52.030;5.652;2023-05-27T03:52:03;7.70;99.90
43089;DHT22;28709;52.030;5.652;2023-05-27T03:54:29;7.70;99.90
43089;DHT22;28709;52.030;5.652;2023-05-27T03:56:55;7.70;99.90
43089;DHT22;28709;52.030;5.652;2023-05-27T03:59:20;7.70;99.90
43089;DHT22;28709;52.030;5.652;2023-05-27T04:01:46;7.80;99.90
43089;DHT22;28709;52.030;5.652;2023-05-27T04:04:13;7.70;99.90
43089;DHT22;28709;52.030;5.652;2023-05-27T04:06:39;7.80;99.90
43089;DHT22;28709;52.030;5.652;2023-05-27T04:09:04;7.70;99.90
43089;DHT22;28709;52.030;5.652;2023-05-27T04:11:30;7.70;99.90
43089;DHT22;28709;52.030;5.652;2023-05-27T04:13:56;7.70;99.90
43089;DHT22;28709;52.030;5.652;2023-05-27T04:16:23;7.80;99.90
43089;DHT22;28709;52.030;5.652;2023-05-27T04:18:50;7.80;99.90
43089;DHT22;28709;52.030;5.652;2023-05-27T04:21:17;7.80;99.90
43089;DHT22;28709;52.030;5.652;2023-05-27T04:23:43;7.80;99.90
43089;DHT22;28709;52.030;5.652;2023-05-27T04:26:08;7.80;99.90
43089;DHT22;28709;52.030;5.652;2023-05-27T04:28:34;7.90;99.90
43089;DHT22;28709;52.030;5.652;2023-05-27T04:31:01;7.90;99.90
43089;DHT22;28709;52.030;5.652;2023-05-27T04:33:26;7.90;99.90
43089;DHT22;28709;52.030;5.652;2023-05-27T04:35:53;8.00;99.90
43089;DHT22;28709;52.030;5.652;2023-05-27T04:38:22;8.00;99.90
43089;DHT22;28709;52.030;5.652;2023-05-27T04:40:49;8.00;99.90
43089;DHT22;28709;52.030;5.652;2023-05-27T04:43:18;8.00;99.90
43089;DHT22;28709;52.030;5.652;2023-05-27T04:45:45;8.10;99.90
43089;DHT22;28709;52.030;5.652;2023-05-27T04:48:11;8.00;99.90
43089;DHT22;28709;52.030;5.652;2023-05-27T04:50:37;8.10;99.90
43089;DHT22;28709;52.030;5.652;2023-05-27T04:53:02;8.10;99.90
43089;DHT22;28709;52.030;5.652;2023-05-27T04:55:29;8.20;99.90
43089;DHT22;28709;52.030;5.652;2023-05-27T04:57:56;8.10;99.90
43089;DHT22;28709;52.030;5.652;2023-05-27T05:00:22;8.20;99.90
43089;DHT22;28709;52.030;5.652;2023-05-27T05:03:10;8.20;99.90
43089;DHT22;28709;52.030;5.652;2023-05-27T05:05:47;8.20;99.90
43089;DHT22;28709;52.030;5.652;2023-05-27T05:08:12;8.20;99.90
43089;DHT22;28709;52.030;5.652;2023-05-27T05:10:38;8.20;99.90
43089;DHT22;28709;52.030;5.652;2023-05-27T05:13:04;8.30;99.90
43089;DHT22;28709;52.030;5.652;2023-05-27T05:15:30;8.30;99.90
43089;DHT22;28709;52.030;5.652;2023-05-27T05:17:56;8.40;99.90
43089;DHT22;28709;52.030;5.652;2023-05-27T05:20:21;8.40;99.90
43089;DHT22;28709;52.030;5.652;2023-05-27T05:22:47;8.50;99.90
43089;DHT22;28709;52.030;5.652;2023-05-27T05:25:14;8.60;99.90
43089;DHT22;28709;52.030;5.652;2023-05-27T05:27:41;8.70;99.90
43089;DHT22;28709;52.030;5.652;2023-05-27T05:30:07;8.80;99.90
43089;DHT22;28709;52.030;5.652;2023-05-27T05:32:33;8.90;99.90
43089;DHT22;28709;52.030;5.652;2023-05-27T05:34:59;8.90;99.90
43089;DHT22;28709;52.030;5.652;2023-05-27T05:37:24;9.00;99.90
43089;DHT22;28709;52.030;5.652;2023-05-27T05:39:50;9.10;99.90
43089;DHT22;28709;52.030;5.652;2023-05-27T05:42:16;9.10;99.90
43089;DHT22;28709;52.030;5.652;2023-05-27T05:44:41;9.30;99.90
43089;DHT22;28709;52.030;5.652;2023-05-27T05:47:07;9.40;99.90
43089;DHT22;28709;52.030;5.652;2023-05-27T05:49:32;9.50;99.90
43089;DHT22;28709;52.030;5.652;2023-05-27T05:51:58;9.60;99.90
43089;DHT22;28709;52.030;5.652;2023-05-27T05:54:24;9.70;99.90
43089;DHT22;28709;52.030;5.652;2023-05-27T05:56:49;9.90;99.90
43089;DHT22;28709;52.030;5.652;2023-05-27T05:59:15;10.10;99.90
43089;DHT22;28709;52.030;5.652;2023-05-27T06:01:41;10.30;99.90
43089;DHT22;28709;52.030;5.652;2023-05-27T06:04:06;10.50;99.90
43089;DHT22;28709;52.030;5.652;2023-05-27T06:06:32;10.60;99.90
43089;DHT22;28709;52.030;5.652;2023-05-27T06:08:57;10.80;99.90
43089;DHT22;28709;52.030;5.652;2023-05-27T06:11:23;10.90;99.90
43089;DHT22;28709;52.030;5.652;2023-05-27T06:13:49;11.10;99.90
43089;DHT22;28709;52.030;5.652;2023-05-27T06:16:14;11.20;99.90
43089;DHT22;28709;52.030;5.652;2023-05-27T06:18:40;11.40;99.90
43089;DHT22;28709;52.030;5.652;2023-05-27T06:21:05;11.60;99.90
43089;DHT22;28709;52.030;5.652;2023-05-27T06:23:31;11.70;99.90
43089;DHT22;28709;52.030;5.652;2023-05-27T06:25:57;11.70;99.90
43089;DHT22;28709;52.030;5.652;2023-05-27T06:28:22;11.90;99.90
43089;DHT22;28709;52.030;5.652;2023-05-27T06:30:48;12.10;99.90
43089;DHT22;28709;52.030;5.652;2023-05-27T06:33:13;12.20;99.90
43089;DHT22;28709;52.030;5.652;2023-05-27T06:35:39;12.30;99.90
43089;DHT22;28709;52.030;5.652;2023-05-27T06:38:05;12.50;99.90
43089;DHT22;28709;52.030;5.652;2023-05-27T06:40:30;12.60;99.90
43089;DHT22;28709;52.030;5.652;2023-05-27T06:42:56;12.70;99.90
43089;DHT22;28709;52.030;5.652;2023-05-27T06:45:22;13.00;99.90
43089;DHT22;28709;52.030;5.652;2023-05-27T06:47:47;13.40;99.90
43089;DHT22;28709;52.030;5.652;2023-05-27T06:50:13;13.60;99.90
43089;DHT22;28709;52.030;5.652;2023-05-27T06:52:39;13.90;99.90
43089;DHT22;28709;52.030;5.652;2023-05-27T06:55:05;14.10;99.90
43089;DHT22;28709;52.030;5.652;2023-05-27T06:57:30;14.10;99.90
43089;DHT22;28709;52.030;5.652;2023-05-27T06:59:56;14.10;99.90
43089;DHT22;28709;52.030;5.652;2023-05-27T07:02:22;14.10;99.90
43089;DHT22;28709;52.030;5.652;2023-05-27T07:04:47;14.20;99.90
43089;DHT22;28709;52.030;5.652;2023-05-27T07:07:13;14.30;99.90
43089;DHT22;28709;52.030;5.652;2023-05-27T07:09:39;14.50;99.90
43089;DHT22;28709;52.030;5.652;2023-05-27T07:12:04;14.70;99.90
43089;DHT22;28709;52.030;5.652;2023-05-27T07:14:32;14.90;99.90
43089;DHT22;28709;52.030;5.652;2023-05-27T07:16:58;15.10;99.90
43089;DHT22;28709;52.030;5.652;2023-05-27T07:19:23;15.30;99.90
43089;DHT22;28709;52.030;5.652;2023-05-27T07:21:49;15.50;99.90
43089;DHT22;28709;52.030;5.652;2023-05-27T07:24:15;15.60;99.90
43089;DHT22;28709;52.030;5.652;2023-05-27T07:26:40;15.70;99.90
43089;DHT22;28709;52.030;5.652;2023-05-27T07:29:06;15.80;99.90
43089;DHT22;28709;52.030;5.652;2023-05-27T07:31:32;16.10;99.90
43089;DHT22;28709;52.030;5.652;2023-05-27T07:33:58;16.30;99.90
43089;DHT22;28709;52.030;5.652;2023-05-27T07:36:23;16.50;99.90
43089;DHT22;28709;52.030;5.652;2023-05-27T07:38:49;16.60;99.90
43089;DHT22;28709;52.030;5.652;2023-05-27T07:41:15;16.60;99.90
43089;DHT22;28709;52.030;5.652;2023-05-27T07:43:41;16.70;99.90
43089;DHT22;28709;52.030;5.652;2023-05-27T07:46:06;16.80;99.90
43089;DHT22;28709;52.030;5.652;2023-05-27T07:48:32;16.70;99.90
43089;DHT22;28709;52.030;5.652;2023-05-27T07:50:57;16.60;99.90
43089;DHT22;28709;52.030;5.652;2023-05-27T07:53:23;16.70;99.90
43089;DHT22;28709;52.030;5.652;2023-05-27T07:55:49;16.70;99.90
43089;DHT22;28709;52.030;5.652;2023-05-27T07:58:14;16.50;99.90
43089;DHT22;28709;52.030;5.652;2023-05-27T08:00:40;16.40;99.90
43089;DHT22;28709;52.030;5.652;2023-05-27T08:03:06;16.50;99.90
43089;DHT22;28709;52.030;5.652;2023-05-27T08:05:32;16.50;99.90
43089;DHT22;28709;52.030;5.652;2023-05-27T08:07:58;16.50;99.90
43089;DHT22;28709;52.030;5.652;2023-05-27T08:10:24;16.50;99.90
43089;DHT22;28709;52.030;5.652;2023-05-27T08:12:50;16.70;99.90
43089;DHT22;28709;52.030;5.652;2023-05-27T08:15:16;16.90;99.90
43089;DHT22;28709;52.030;5.652;2023-05-27T08:17:42;16.90;99.90
43089;DHT22;28709;52.030;5.652;2023-05-27T08:20:09;17.10;99.90
43089;DHT22;28709;52.030;5.652;2023-05-27T08:22:35;17.60;99.90
43089;DHT22;28709;52.030;5.652;2023-05-27T08:25:01;17.90;99.90
43089;DHT22;28709;52.030;5.652;2023-05-27T08:27:49;18.20;99.90
43089;DHT22;28709;52.030;5.652;2023-05-27T08:30:15;18.40;99.90
43089;DHT22;28709;52.030;5.652;2023-05-27T08:32:42;18.80;99.90
43089;DHT22;28709;52.030;5.652;2023-05-27T08:35:08;18.90;99.90
43089;DHT22;28709;52.030;5.652;2023-05-27T08:37:34;18.70;99.90
43089;DHT22;28709;52.030;5.652;2023-05-27T08:39:59;18.80;99.90
43089;DHT22;28709;52.030;5.652;2023-05-27T08:42:25;18.80;99.90
43089;DHT22;28709;52.030;5.652;2023-05-27T08:44:51;19.00;99.90
43089;DHT22;28709;52.030;5.652;2023-05-27T08:47:17;19.40;99.90
43089;DHT22;28709;52.030;5.652;2023-05-27T08:49:43;19.70;99.90
43089;DHT22;28709;52.030;5.652;2023-05-27T08:52:14;19.90;99.80
43089;DHT22;28709;52.030;5.652;2023-05-27T08:54:43;20.20;99.60
43089;DHT22;28709;52.030;5.652;2023-05-27T08:57:13;20.00;99.20
43089;DHT22;28709;52.030;5.652;2023-05-27T08:59:40;20.00;99.60
43089;DHT22;28709;52.030;5.652;2023-05-27T09:02:11;20.20;99.10
43089;DHT22;28709;52.030;5.652;2023-05-27T09:04:40;20.30;98.50
43089;DHT22;28709;52.030;5.652;2023-05-27T09:07:07;20.30;98.40
43089;DHT22;28709;52.030;5.652;2023-05-27T09:09:33;20.30;98.00
43089;DHT22;28709;52.030;5.652;2023-05-27T09:12:01;19.80;97.60
43089;DHT22;28709;52.030;5.652;2023-05-27T09:14:28;19.40;99.40
43089;DHT22;28709;52.030;5.652;2023-05-27T09:16:54;19.30;99.90
43089;DHT22;28709;52.030;5.652;2023-05-27T09:19:20;19.20;99.90
43089;DHT22;28709;52.030;5.652;2023-05-27T09:21:47;19.00;99.90
43089;DHT22;28709;52.030;5.652;2023-05-27T09:24:12;19.10;99.90
43089;DHT22;28709;52.030;5.652;2023-05-27T09:26:38;19.10;99.90
43089;DHT22;28709;52.030;5.652;2023-05-27T09:29:08;18.90;99.90
43089;DHT22;28709;52.030;5.652;2023-05-27T09:31:41;19.20;99.90
43089;DHT22;28709;52.030;5.652;2023-05-27T09:34:16;19.70;99.10
43089;DHT22;28709;52.030;5.652;2023-05-27T09:36:46;20.00;96.10
43089;DHT22;28709;52.030;5.652;2023-05-27T09:39:14;20.20;95.30
43089;DHT22;28709;52.030;5.652;2023-05-27T09:41:40;20.50;96.00
43089;DHT22;28709;52.030;5.652;2023-05-27T09:44:06;20.50;96.50
43089;DHT22;28709;52.030;5.652;2023-05-27T09:46:33;20.60;96.40
43089;DHT22;28709;52.030;5.652;2023-05-27T09:48:59;20.80;96.20
43089;DHT22;28709;52.030;5.652;2023-05-27T09:51:29;21.10;95.80
43089;DHT22;28709;52.030;5.652;2023-05-27T09:53:55;21.10;95.80
43089;DHT22;28709;52.030;5.652;2023-05-27T09:56:26;21.30;95.80
43089;DHT22;28709;52.030;5.652;2023-05-27T09:58:56;21.30;95.70
43089;DHT22;28709;52.030;5.652;2023-05-27T10:01:25;21.50;95.10
43089;DHT22;28709;52.030;5.652;2023-05-27T10:03:54;21.60;94.00
43089;DHT22;28709;52.030;5.652;2023-05-27T10:06:20;21.10;93.60
43089;DHT22;28709;52.030;5.652;2023-05-27T10:08:47;20.60;94.10
43089;DHT22;28709;52.030;5.652;2023-05-27T10:11:13;20.60;94.20
43089;DHT22;28709;52.030;5.652;2023-05-27T10:13:39;20.70;94.50
43089;DHT22;28709;52.030;5.652;2023-05-27T10:16:05;21.20;94.20
43089;DHT22;28709;52.030;5.652;2023-05-27T10:18:31;21.50;93.20
43089;DHT22;28709;52.030;5.652;2023-05-27T10:21:00;21.40;92.40
43089;DHT22;28709;52.030;5.652;2023-05-27T10:23:29;21.10;92.40
43089;DHT22;28709;52.030;5.652;2023-05-27T10:26:06;20.80;92.20
43089;DHT22;28709;52.030;5.652;2023-05-27T10:28:33;20.60;92.60
43089;DHT22;28709;52.030;5.652;2023-05-27T10:31:28;20.70;92.80
43089;DHT22;28709;52.030;5.652;2023-05-27T10:33:57;21.20;92.50
43089;DHT22;28709;52.030;5.652;2023-05-27T10:36:27;21.20;91.90
43089;DHT22;28709;52.030;5.652;2023-05-27T10:38:58;21.20;92.10
43089;DHT22;28709;52.030;5.652;2023-05-27T10:41:24;21.40;91.80
43089;DHT22;28709;52.030;5.652;2023-05-27T10:43:57;21.30;91.60
43089;DHT22;28709;52.030;5.652;2023-05-27T10:46:23;21.40;90.90
43089;DHT22;28709;52.030;5.652;2023-05-27T10:48:49;21.20;91.70
43089;DHT22;28709;52.030;5.652;2023-05-27T10:51:14;20.90;91.10
43089;DHT22;28709;52.030;5.652;2023-05-27T10:53:40;20.70;91.70
43089;DHT22;28709;52.030;5.652;2023-05-27T10:56:06;21.20;91.60
43089;DHT22;28709;52.030;5.652;2023-05-27T10:58:35;21.70;91.70
43089;DHT22;28709;52.030;5.652;2023-05-27T11:01:07;21.90;91.50
43089;DHT22;28709;52.030;5.652;2023-05-27T11:03:33;21.90;90.90
43089;DHT22;28709;52.030;5.652;2023-05-27T11:06:03;21.90;90.60
43089;DHT22;28709;52.030;5.652;2023-05-27T11:08:31;21.70;90.30
43089;DHT22;28709;52.030;5.652;2023-05-27T11:11:06;21.60;88.20
43089;DHT22;28709;52.030;5.652;2023-05-27T11:13:33;21.20;89.10
43089;DHT22;28709;52.030;5.652;2023-05-27T11:16:01;21.00;88.70
43089;DHT22;28709;52.030;5.652;2023-05-27T11:18:43;21.00;89.20
43089;DHT22;28709;52.030;5.652;2023-05-27T11:21:11;21.00;87.90
43089;DHT22;28709;52.030;5.652;2023-05-27T11:23:37;21.20;88.40
43089;DHT22;28709;52.030;5.652;2023-05-27T11:26:11;21.20;85.80
43089;DHT22;28709;52.030;5.652;2023-05-27T11:28:37;21.10;85.80
43089;DHT22;28709;52.030;5.652;2023-05-27T11:31:04;21.00;85.70
43089;DHT22;28709;52.030;5.652;2023-05-27T11:33:33;21.00;85.50
43089;DHT22;28709;52.030;5.652;2023-05-27T11:36:06;21.20;85.00
43089;DHT22;28709;52.030;5.652;2023-05-27T11:38:45;21.70;84.70
43089;DHT22;28709;52.030;5.652;2023-05-27T11:41:12;22.10;85.60
43089;DHT22;28709;52.030;5.652;2023-05-27T11:43:56;22.40;85.50
43089;DHT22;28709;52.030;5.652;2023-05-27T11:46:35;22.70;84.10
43089;DHT22;28709;52.030;5.652;2023-05-27T11:49:02;23.00;82.90
43089;DHT22;28709;52.030;5.652;2023-05-27T11:51:32;23.20;82.40
43089;DHT22;28709;52.030;5.652;2023-05-27T11:53:59;23.20;82.30
43089;DHT22;28709;52.030;5.652;2023-05-27T11:56:27;23.10;82.60
43089;DHT22;28709;52.030;5.652;2023-05-27T11:58:57;23.00;82.20
43089;DHT22;28709;52.030;5.652;2023-05-27T12:01:23;22.90;81.70
43089;DHT22;28709;52.030;5.652;2023-05-27T12:03:49;22.70;79.60
43089;DHT22;28709;52.030;5.652;2023-05-27T12:06:15;22.50;79.70
43089;DHT22;28709;52.030;5.652;2023-05-27T12:08:41;22.50;79.80
43089;DHT22;28709;52.030;5.652;2023-05-27T12:11:07;22.80;79.30
43089;DHT22;28709;52.030;5.652;2023-05-27T12:13:33;23.30;79.30
43089;DHT22;28709;52.030;5.652;2023-05-27T12:15:59;23.70;79.00
43089;DHT22;28709;52.030;5.652;2023-05-27T12:18:24;23.90;78.10
43089;DHT22;28709;52.030;5.652;2023-05-27T12:20:50;23.90;76.00
43089;DHT22;28709;52.030;5.652;2023-05-27T12:23:16;23.90;75.80
43089;DHT22;28709;52.030;5.652;2023-05-27T12:25:42;24.00;75.60
43089;DHT22;28709;52.030;5.652;2023-05-27T12:28:08;24.10;75.00
43089;DHT22;28709;52.030;5.652;2023-05-27T12:30:36;24.30;73.90
43089;DHT22;28709;52.030;5.652;2023-05-27T12:33:02;24.20;74.60
43089;DHT22;28709;52.030;5.652;2023-05-27T12:35:29;24.20;75.00
43089;DHT22;28709;52.030;5.652;2023-05-27T12:37:55;24.20;75.30
43089;DHT22;28709;52.030;5.652;2023-05-27T12:40:21;24.30;75.30
43089;DHT22;28709;52.030;5.652;2023-05-27T12:42:48;24.30;74.10
43089;DHT22;28709;52.030;5.652;2023-05-27T12:45:13;24.20;73.90
43089;DHT22;28709;52.030;5.652;2023-05-27T12:47:39;24.20;72.50
43089;DHT22;28709;52.030;5.652;2023-05-27T12:50:05;24.20;71.70
43089;DHT22;28709;52.030;5.652;2023-05-27T12:52:31;24.20;72.20
43089;DHT22;28709;52.030;5.652;2023-05-27T12:54:58;24.30;72.10
43089;DHT22;28709;52.030;5.652;2023-05-27T12:57:23;24.20;71.00
43089;DHT22;28709;52.030;5.652;2023-05-27T12:59:49;24.00;71.60
43089;DHT22;28709;52.030;5.652;2023-05-27T13:02:15;24.00;71.00
43089;DHT22;28709;52.030;5.652;2023-05-27T13:04:40;24.00;71.30
43089;DHT22;28709;52.030;5.652;2023-05-27T13:07:10;24.10;71.20
43089;DHT22;28709;52.030;5.652;2023-05-27T13:09:37;24.10;71.70
43089;DHT22;28709;52.030;5.652;2023-05-27T13:12:03;24.00;71.90
43089;DHT22;28709;52.030;5.652;2023-05-27T13:14:29;23.80;70.60
43089;DHT22;28709;52.030;5.652;2023-05-27T13:16:55;23.70;71.30
43089;DHT22;28709;52.030;5.652;2023-05-27T13:19:21;23.60;71.30
43089;DHT22;28709;52.030;5.652;2023-05-27T13:21:47;23.50;71.00
43089;DHT22;28709;52.030;5.652;2023-05-27T13:24:13;23.20;71.50
43089;DHT22;28709;52.030;5.652;2023-05-27T13:26:39;23.00;72.20
43089;DHT22;28709;52.030;5.652;2023-05-27T13:29:05;22.90;72.60
43089;DHT22;28709;52.030;5.652;2023-05-27T13:31:30;22.90;72.80
43089;DHT22;28709;52.030;5.652;2023-05-27T13:33:56;22.90;72.20
43089;DHT22;28709;52.030;5.652;2023-05-27T13:36:22;23.00;71.00
43089;DHT22;28709;52.030;5.652;2023-05-27T13:38:47;22.90;71.60
43089;DHT22;28709;52.030;5.652;2023-05-27T13:41:14;22.90;71.80
43089;DHT22;28709;52.030;5.652;2023-05-27T13:43:39;22.90;72.50
43089;DHT22;28709;52.030;5.652;2023-05-27T13:46:05;22.90;73.00
43089;DHT22;28709;52.030;5.652;2023-05-27T13:48:31;22.80;73.10
43089;DHT22;28709;52.030;5.652;2023-05-27T13:50:57;22.70;73.00
43089;DHT22;28709;52.030;5.652;2023-05-27T13:53:23;22.70;73.70
43089;DHT22;28709;52.030;5.652;2023-05-27T13:55:48;22.90;73.50
43089;DHT22;28709;52.030;5.652;2023-05-27T13:58:14;22.90;72.20
43089;DHT22;28709;52.030;5.652;2023-05-27T14:00:40;22.90;71.70
43089;DHT22;28709;52.030;5.652;2023-05-27T14:03:06;23.00;71.40
43089;DHT22;28709;52.030;5.652;2023-05-27T14:05:32;23.00;71.50
43089;DHT22;28709;52.030;5.652;2023-05-27T14:07:59;23.10;72.20
43089;DHT22;28709;52.030;5.652;2023-05-27T14:10:26;23.00;72.90
43089;DHT22;28709;52.030;5.652;2023-05-27T14:12:52;23.10;73.30
43089;DHT22;28709;52.030;5.652;2023-05-27T14:15:18;22.90;73.30
43089;DHT22;28709;52.030;5.652;2023-05-27T14:17:43;22.80;73.80
43089;DHT22;28709;52.030;5.652;2023-05-27T14:20:10;22.60;73.80
43089;DHT22;28709;52.030;5.652;2023-05-27T14:22:39;22.60;74.10
43089;DHT22;28709;52.030;5.652;2023-05-27T14:25:06;22.70;74.40
43089;DHT22;28709;52.030;5.652;2023-05-27T14:27:32;22.80;73.50
43089;DHT22;28709;52.030;5.652;2023-05-27T14:29:57;22.80;73.30
43089;DHT22;28709;52.030;5.652;2023-05-27T14:32:23;22.80;73.20
43089;DHT22;28709;52.030;5.652;2023-05-27T14:34:48;22.70;73.50
43089;DHT22;28709;52.030;5.652;2023-05-27T14:37:14;22.60;73.40
43089;DHT22;28709;52.030;5.652;2023-05-27T14:39:40;22.50;73.50
43089;DHT22;28709;52.030;5.652;2023-05-27T14:42:06;22.40;73.70
43089;DHT22;28709;52.030;5.652;2023-05-27T14:44:34;22.40;73.70
43089;DHT22;28709;52.030;5.652;2023-05-27T14:47:01;22.40;73.90
43089;DHT22;28709;52.030;5.652;2023-05-27T14:49:27;22.50;73.80
43089;DHT22;28709;52.030;5.652;2023-05-27T14:51:52;22.50;74.20
43089;DHT22;28709;52.030;5.652;2023-05-27T14:54:18;22.60;73.00
43089;DHT22;28709;52.030;5.652;2023-05-27T14:56:44;22.60;73.00
43089;DHT22;28709;52.030;5.652;2023-05-27T14:59:09;22.70;72.40
43089;DHT22;28709;52.030;5.652;2023-05-27T15:01:35;22.70;72.00
43089;DHT22;28709;52.030;5.652;2023-05-27T15:04:00;22.80;71.40
43089;DHT22;28709;52.030;5.652;2023-05-27T15:06:26;22.60;71.10
43089;DHT22;28709;52.030;5.652;2023-05-27T15:08:52;22.60;71.70
43089;DHT22;28709;52.030;5.652;2023-05-27T15:11:18;22.60;72.20
43089;DHT22;28709;52.030;5.652;2023-05-27T15:13:44;22.60;72.30
43089;DHT22;28709;52.030;5.652;2023-05-27T15:16:09;22.60;72.50
43089;DHT22;28709;52.030;5.652;2023-05-27T15:18:35;22.60;72.70
43089;DHT22;28709;52.030;5.652;2023-05-27T15:21:01;22.50;72.20
43089;DHT22;28709;52.030;5.652;2023-05-27T15:23:26;22.60;70.40
43089;DHT22;28709;52.030;5.652;2023-05-27T15:25:52;22.50;70.60
43089;DHT22;28709;52.030;5.652;2023-05-27T15:28:19;22.50;71.10
43089;DHT22;28709;52.030;5.652;2023-05-27T15:30:44;22.50;71.70
43089;DHT22;28709;52.030;5.652;2023-05-27T15:33:10;22.50;72.10
43089;DHT22;28709;52.030;5.652;2023-05-27T15:35:36;22.50;71.70
43089;DHT22;28709;52.030;5.652;2023-05-27T15:38:02;22.50;71.70
43089;DHT22;28709;52.030;5.652;2023-05-27T15:40:27;22.50;71.90